Aviation Digital Data Service (ADDS)

Output produced by METARs form (1935 UTC 31 January 2023)
found at http://www.aviationweather.gov/metar/data/
 
LHPR 311915Z AUTO 29025KT 9999 -RA OVC038 04/M02 Q1019
LHPR 311845Z AUTO 29008KT CAVOK 04/M02 Q1019
LHPR 311815Z AUTO 28010KT CAVOK 04/M02 Q1019
LHPR 311745Z AUTO 29014KT CAVOK 05/M03 Q1019 NOSIG
LHPR 311715Z AUTO 28013KT CAVOK 04/M02 Q1019 NOSIG
LHPR 311645Z AUTO 29012KT 250V310 9999 SCT045 04/M03 Q1019 NOSIG
LHPR 311615Z AUTO 28009KT 9999 SCT045 05/M02 Q1019 NOSIG
LHPR 311545Z AUTO 29012KT 9999 SCT041 05/M02 Q1019 NOSIG
LHPR 311515Z AUTO 29011KT 9999 FEW044 OVC065 05/M02 Q1019 NOSIG
LHPR 311445Z AUTO 31019KT CAVOK 06/M03 Q1019 NOSIG
LHPR 311415Z AUTO 30021G31KT CAVOK 06/M03 Q1019 NOSIG
LHPR 311345Z AUTO 31017KT 9999 OVC043 05/M02 Q1019 NOSIG
TAF LHPR 311715Z 3118/0103 26012KT 9999 SCT040 SCT080 
     TEMPO 3118/0103 28016G28KT 
     BECMG 3119/3122 -RA -RASN BKN025 OVC060